Time;durP1;ratioP1;P1;durP2;ratioP2;P2;SDS_P1;SDS_P2;PMS_P1;PMS_P2;Temp;Humidity;BMP_temperature;BMP_pressure;BME280_temperature;BME280_humidity;BME280_pressure;Samples;Min_cycle;Max_cycle;Signal;HPM_P1;HPM_P2
2021/12/28 00:02:46;;;;;;;69.55;14.15;;;;;;;2.84;98.92;100937.81;10418846;28;20037;-77
2021/12/28 00:07:47;;;;;;;79.38;14.10;;;;;;;2.60;99.32;100912.28;10418809;28;20033;-77
2021/12/28 00:12:48;;;;;;;34.00;13.07;;;;;;;2.57;99.44;100904.63;10418308;28;20478;-77
2021/12/28 00:17:59;;;;;;;43.13;11.70;;;;;;;2.61;99.87;100921.84;10417370;28;20560;-77
2021/12/28 00:23:03;;;;;;;104.50;13.93;;;;;;;1.77;100.00;100810.31;10417685;28;20460;-77
2021/12/28 00:28:04;;;;;;;109.18;12.65;;;;;;;2.29;100.00;100879.41;10417168;28;20133;-77
2021/12/28 00:33:07;;;;;;;85.68;13.52;;;;;;;2.32;100.00;100879.19;10416904;28;20061;-77
2021/12/28 00:38:10;;;;;;;98.22;12.98;;;;;;;2.45;100.00;100908.06;10417079;28;20045;-76
2021/12/28 00:43:12;;;;;;;37.77;13.07;;;;;;;1.95;100.00;100831.84;10414921;28;20128;-77
2021/12/28 00:48:13;;;;;;;40.30;12.10;;;;;;;1.77;100.00;100786.72;10416641;28;20044;-77
2021/12/28 00:53:14;;;;;;;18.60;12.10;;;;;;;2.20;99.76;100877.41;10414806;28;20069;-78
2021/12/28 00:58:16;;;;;;;21.02;12.18;;;;;;;1.99;100.00;100838.53;10415833;28;20076;-77
2021/12/28 01:03:18;;;;;;;18.20;10.98;;;;;;;2.54;99.76;100938.09;10416701;28;20037;-77
2021/12/28 01:08:19;;;;;;;51.28;11.57;;;;;;;1.99;99.38;100859.50;10414523;28;20449;-77
2021/12/28 01:13:21;;;;;;;63.47;11.82;;;;;;;2.02;99.45;100882.06;10415648;28;20045;-77
2021/12/28 01:18:22;;;;;;;30.05;11.25;;;;;;;2.46;99.91;100936.81;10413738;28;20398;-77
2021/12/28 01:23:25;;;;;;;36.33;11.25;;;;;;;2.18;99.60;100893.22;10414654;28;20045;-77
2021/12/28 01:28:26;;;;;;;50.45;11.05;;;;;;;1.78;99.42;100834.72;10414508;28;20041;-77
2021/12/28 01:33:27;;;;;;;45.00;10.68;;;;;;;1.76;99.54;100829.56;10414155;28;20577;-77
2021/12/28 01:38:27;;;;;;;85.45;11.40;;;;;;;1.46;99.92;100772.16;10415236;28;20130;-76
2021/12/28 01:43:28;;;;;;;42.88;10.90;;;;;;;2.54;99.88;100949.41;10413656;28;20045;-77
2021/12/28 01:48:41;;;;;;;33.00;10.80;;;;;;;2.27;100.00;100908.38;10412600;28;20416;-77
2021/12/28 01:53:42;;;;;;;27.75;11.38;;;;;;;1.48;99.79;100778.16;10413566;28;20045;-77
2021/12/28 01:58:44;;;;;;;39.92;11.88;;;;;;;2.48;100.00;100950.69;10414725;28;20033;-77
2021/12/28 02:03:46;;;;;;;41.05;11.32;;;;;;;2.13;100.00;100899.72;10412749;28;20036;-79
2021/12/28 02:08:47;;;;;;;39.97;12.23;;;;;;;1.58;100.00;100801.94;10428697;28;20525;-77
2021/12/28 02:13:49;;;;;;;26.85;12.60;;;;;;;2.46;100.00;100935.97;10413876;28;20041;-77
2021/12/28 02:18:50;;;;;;;45.40;12.55;;;;;;;1.07;99.79;100707.50;10414023;28;20042;-77
2021/12/28 02:23:51;;;;;;;44.50;12.57;;;;;;;1.15;100.00;100713.09;10412697;28;20091;-78
2021/12/28 02:28:53;;;;;;;52.42;12.15;;;;;;;1.82;100.00;100818.72;10413053;28;20091;-77
2021/12/28 02:33:54;;;;;;;93.28;13.70;;;;;;;2.72;100.00;100965.72;10413406;28;20063;-78
2021/12/28 02:38:54;;;;;;;56.70;13.65;;;;;;;1.85;100.00;100822.06;10413092;28;20049;-78
2021/12/28 02:44:03;;;;;;;23.42;12.95;;;;;;;2.55;100.00;100910.94;10416508;28;20042;-78
2021/12/28 02:49:05;;;;;;;26.17;12.98;;;;;;;1.98;100.00;100831.63;10430028;28;20416;-77
2021/12/28 02:54:06;;;;;;;25.77;13.25;;;;;;;2.66;100.00;100947.75;10457137;28;20507;-76
2021/12/28 02:59:07;;;;;;;36.83;13.07;;;;;;;2.24;100.00;100873.63;10454421;28;20061;-77
2021/12/28 03:04:08;;;;;;;23.88;13.90;;;;;;;2.10;100.00;100830.00;10420964;28;20045;-77
2021/12/28 03:09:08;;;;;;;37.67;14.63;;;;;;;2.26;100.00;100850.78;10417230;28;20493;-77
2021/12/28 03:14:09;;;;;;;30.40;13.80;;;;;;;2.88;100.00;100934.06;10418691;28;20417;-77
2021/12/28 03:19:10;;;;;;;25.10;13.48;;;;;;;2.12;100.00;100803.66;10420093;28;20033;-77
2021/12/28 03:24:11;;;;;;;42.03;13.75;;;;;;;1.93;100.00;100772.63;10420556;28;20399;-77
2021/12/28 03:29:12;;;;;;;46.30;17.20;;;;;;;1.72;100.00;100761.78;10419052;28;20389;-77
2021/12/28 03:34:13;;;;;;;38.50;15.85;;;;;;;1.32;100.00;100681.44;10418149;28;20096;-77
2021/12/28 03:39:14;;;;;;;42.80;14.43;;;;;;;2.26;100.00;100846.38;10418855;28;20041;-77
2021/12/28 03:44:15;;;;;;;70.82;14.60;;;;;;;1.76;100.00;100774.56;10419220;28;20529;-77
2021/12/28 03:49:15;;;;;;;44.13;15.90;;;;;;;1.67;100.00;100753.38;10418421;28;20052;-77
2021/12/28 03:54:16;;;;;;;26.63;13.90;;;;;;;1.65;100.00;100750.03;10419194;28;20485;-77
2021/12/28 03:59:17;;;;;;;43.42;15.18;;;;;;;1.89;100.00;100805.22;10416899;28;20045;-77
2021/12/28 04:04:18;;;;;;;36.63;14.48;;;;;;;1.74;100.00;100792.16;10416961;28;20038;-77
2021/12/28 04:09:33;;;;;;;73.63;15.52;;;;;;;1.72;100.00;100780.09;10415016;28;20042;-78
2021/12/28 04:14:34;;;;;;;45.58;14.02;;;;;;;2.78;100.00;100946.09;10417539;28;20042;-78
2021/12/28 04:19:35;;;;;;;41.70;15.27;;;;;;;1.13;100.00;100673.94;10417047;28;20566;-79
2021/12/28 04:24:36;;;;;;;29.23;13.82;;;;;;;2.57;100.00;100895.91;10408062;28;20034;-78
2021/12/28 04:29:37;;;;;;;49.75;14.65;;;;;;;2.89;100.00;100948.84;10385814;28;20563;-78
2021/12/28 04:34:37;;;;;;;24.52;13.43;;;;;;;2.48;100.00;100874.63;10368962;28;20280;-75
2021/12/28 04:39:38;;;;;;;35.35;13.02;;;;;;;1.50;100.00;100710.81;10379588;28;20045;-76
2021/12/28 04:44:39;;;;;;;30.42;12.15;;;;;;;2.25;100.00;100851.72;10373556;28;20100;-75
2021/12/28 04:49:40;;;;;;;19.75;10.88;;;;;;;1.86;100.00;100782.66;10375753;28;20129;-75
2021/12/28 04:54:41;;;;;;;20.98;11.30;;;;;;;2.70;100.00;100933.50;10345631;28;20137;-76
2021/12/28 04:59:42;;;;;;;17.67;10.40;;;;;;;3.00;100.00;100977.84;10333353;28;20050;-77
2021/12/28 05:04:44;;;;;;;20.00;10.50;;;;;;;2.43;100.00;100902.94;10358691;28;20040;-76
2021/12/28 05:09:44;;;;;;;19.75;10.85;;;;;;;2.07;100.00;100845.09;10375037;28;20042;-76
2021/12/28 05:14:45;;;;;;;28.73;10.63;;;;;;;1.55;100.00;100765.47;10373838;28;20096;-77
2021/12/28 05:19:46;;;;;;;27.27;10.90;;;;;;;2.16;100.00;100882.00;10374018;28;20108;-76
2021/12/28 05:24:47;;;;;;;17.75;10.35;;;;;;;2.46;100.00;100930.75;10378350;28;20056;-77
2021/12/28 05:29:48;;;;;;;19.02;10.98;;;;;;;2.35;100.00;100893.88;10348816;28;20429;-75
2021/12/28 05:34:50;;;;;;;18.85;9.95;;;;;;;2.91;100.00;100992.41;10355140;28;20085;-76
2021/12/28 05:39:50;;;;;;;21.10;10.18;;;;;;;2.73;100.00;100970.03;10373197;28;20071;-76
2021/12/28 05:44:51;;;;;;;16.45;10.40;;;;;;;2.81;100.00;100964.25;10370709;28;20034;-76
2021/12/28 05:49:52;;;;;;;18.80;10.23;;;;;;;3.06;100.00;100981.84;10370017;28;20091;-77
2021/12/28 05:54:53;;;;;;;18.88;10.10;;;;;;;1.71;100.00;100755.69;10369120;28;20421;-77
2021/12/28 05:59:54;;;;;;;13.23;8.57;;;;;;;2.57;100.00;100890.66;10368477;28;20053;-76
2021/12/28 06:04:54;;;;;;;18.13;8.93;;;;;;;3.13;100.00;100983.09;10369831;28;20038;-76
2021/12/28 06:09:56;;;;;;;17.65;10.00;;;;;;;2.92;100.00;100923.22;10362446;28;20041;-76
2021/12/28 06:14:57;;;;;;;17.65;9.95;;;;;;;2.61;100.00;100865.94;10351154;28;20054;-76
2021/12/28 06:19:58;;;;;;;17.95;8.73;;;;;;;3.26;100.00;100955.06;10331628;28;20045;-76
2021/12/28 06:24:59;;;;;;;15.55;9.57;;;;;;;2.72;100.00;100850.28;10331506;28;20097;-78
2021/12/28 06:30:00;;;;;;;15.25;9.00;;;;;;;3.26;100.00;100928.81;10346211;28;20469;-79
2021/12/28 06:35:00;;;;;;;14.93;8.93;;;;;;;3.22;100.00;100916.81;10341693;28;20066;-79
2021/12/28 06:40:02;;;;;;;18.25;9.82;;;;;;;3.22;100.00;100903.69;10352111;28;20049;-79
2021/12/28 06:45:04;;;;;;;20.70;9.35;;;;;;;3.60;100.00;100947.44;10371993;28;20034;-80
2021/12/28 06:50:07;;;;;;;16.63;9.52;;;;;;;3.06;100.00;100866.34;10365495;28;20486;-80
2021/12/28 06:55:09;;;;;;;20.52;9.65;;;;;;;3.57;100.00;100955.53;10343088;28;20474;-79
2021/12/28 07:00:15;;;;;;;16.50;8.88;;;;;;;2.50;99.84;100790.59;10350989;28;20037;-79
2021/12/28 07:05:16;;;;;;;13.65;8.13;;;;;;;2.91;100.00;100863.00;10345336;28;20046;-73
2021/12/28 07:10:20;;;;;;;15.85;9.02;;;;;;;3.25;99.96;100921.03;10361184;28;20042;-77
2021/12/28 07:15:21;;;;;;;16.75;8.70;;;;;;;3.41;100.00;100942.63;10344527;28;20383;-78
2021/12/28 07:20:22;;;;;;;14.55;7.60;;;;;;;3.21;100.00;100904.66;10330269;28;20038;-77
2021/12/28 07:25:24;;;;;;;18.27;8.07;;;;;;;3.47;99.98;100936.97;10339099;28;20042;-77
2021/12/28 07:30:26;;;;;;;17.55;8.52;;;;;;;3.48;100.00;100938.63;10338038;28;20514;-73
2021/12/28 07:35:27;;;;;;;14.63;7.30;;;;;;;3.49;100.00;100913.22;10330124;28;20498;-77
2021/12/28 07:40:28;;;;;;;14.18;7.95;;;;;;;2.70;100.00;100776.13;10334718;28;20532;-77
2021/12/28 07:45:29;;;;;;;17.13;9.10;;;;;;;3.35;100.00;100875.63;10337529;28;20049;-78
2021/12/28 07:50:30;;;;;;;13.15;7.88;;;;;;;3.11;100.00;100827.47;10336959;28;20054;-78
2021/12/28 07:55:31;;;;;;;15.63;8.32;;;;;;;3.66;100.00;100873.44;10336816;28;20043;-78
2021/12/28 08:00:32;;;;;;;16.70;7.93;;;;;;;3.78;100.00;100879.59;10337733;28;20074;-77
2021/12/28 08:05:35;;;;;;;18.67;8.90;;;;;;;3.76;100.00;100855.22;10336570;28;20042;-77
2021/12/28 08:10:36;;;;;;;17.55;8.32;;;;;;;4.07;100.00;100865.19;10337331;28;20053;-77
2021/12/28 08:15:37;;;;;;;18.40;9.15;;;;;;;4.08;100.00;100864.22;10337083;28;20065;-78
2021/12/28 08:20:39;;;;;;;17.15;8.57;;;;;;;3.89;99.81;100775.38;10336024;28;20058;-78
2021/12/28 08:25:40;;;;;;;14.23;8.50;;;;;;;3.63;99.89;100711.63;10336680;28;20153;-77
2021/12/28 08:30:41;;;;;;;20.20;9.30;;;;;;;4.41;100.00;100833.72;10335747;28;20054;-78
2021/12/28 08:35:42;;;;;;;18.15;9.40;;;;;;;3.89;98.98;100735.94;10335880;28;20042;-78
2021/12/28 08:40:44;;;;;;;15.23;8.52;;;;;;;3.26;98.97;100605.84;10335262;28;20058;-78
2021/12/28 08:45:45;;;;;;;17.33;9.27;;;;;;;2.85;98.64;100525.78;10335239;28;20117;-77
2021/12/28 08:50:47;;;;;;;17.33;9.00;;;;;;;3.88;98.41;100688.75;10335312;28;20049;-77
2021/12/28 08:55:48;;;;;;;16.10;8.57;;;;;;;3.70;98.69;100658.59;10335108;28;20169;-77
2021/12/28 09:00:49;;;;;;;20.23;8.27;;;;;;;4.57;98.27;100804.44;10334943;28;20414;-77
2021/12/28 09:05:50;;;;;;;18.00;8.00;;;;;;;4.21;98.90;100743.16;10334171;28;20042;-79
2021/12/28 09:10:51;;;;;;;18.40;8.77;;;;;;;4.27;97.94;100718.19;10334584;28;20045;-77
2021/12/28 09:15:52;;;;;;;15.63;7.93;;;;;;;4.61;98.09;100757.66;10334311;28;20050;-77
2021/12/28 09:20:53;;;;;;;17.55;8.98;;;;;;;3.26;97.87;100547.22;10341449;28;20042;-78
2021/12/28 09:25:54;;;;;;;17.42;8.35;;;;;;;3.09;98.00;100496.03;10359488;28;20414;-77
2021/12/28 09:30:55;;;;;;;13.48;8.07;;;;;;;4.69;96.98;100763.19;10383694;28;20064;-76
2021/12/28 09:35:57;;;;;;;12.57;7.15;;;;;;;4.22;96.91;100641.44;10373583;28;20038;-75
2021/12/28 09:40:58;;;;;;;16.58;8.43;;;;;;;4.71;97.19;100706.84;10372505;28;20425;-74
2021/12/28 09:46:00;;;;;;;16.38;7.97;;;;;;;4.70;96.72;100733.28;10373154;28;20522;-77
2021/12/28 09:51:03;;;;;;;12.65;7.88;;;;;;;4.93;96.68;100763.03;10380456;28;20124;-84
2021/12/28 09:56:05;;;;;;;15.82;8.20;;;;;;;3.51;96.70;100507.66;10374301;28;20052;-84
2021/12/28 10:01:08;;;;;;;10.00;7.40;;;;;;;4.21;96.33;100619.56;10382824;28;20132;-83
2021/12/28 10:06:22;;;;;;;13.32;7.50;;;;;;;4.89;95.91;100751.09;10414819;28;20567;-84
2021/12/28 10:11:34;;;;;;;13.55;8.60;;;;;;;4.08;96.94;100595.22;10406195;28;20491;-85
2021/12/28 10:17:05;;;;;;;10.88;7.05;;;;;;;4.89;95.87;100717.72;10357760;28;20047;-83
2021/12/28 10:22:27;;;;;;;11.27;7.10;;;;;;;4.09;95.31;100597.72;10350460;28;20089;-84
2021/12/28 10:27:29;;;;;;;10.65;7.53;;;;;;;4.87;95.71;100722.25;10354600;28;20073;-83
2021/12/28 10:32:30;;;;;;;10.40;7.03;;;;;;;4.93;95.33;100708.59;10348829;28;20436;-81
2021/12/28 10:37:37;;;;;;;12.05;7.78;;;;;;;4.20;95.24;100580.28;10349032;28;20042;-83
2021/12/28 10:42:53;;;;;;;11.80;6.10;;;;;;;5.15;95.54;100710.34;10347435;28;20045;-83
2021/12/28 10:47:54;;;;;;;11.45;7.70;;;;;;;5.12;94.81;100718.50;10344567;28;20043;-83
2021/12/28 10:53:12;;;;;;;12.80;8.35;;;;;;;4.86;95.28;100677.63;10345963;28;20037;-83
2021/12/28 10:58:32;;;;;;;11.68;6.72;;;;;;;3.88;95.03;100515.28;10383960;28;20092;-82
2021/12/28 11:03:42;;;;;;;20.80;10.23;;;;;;;4.91;94.72;100686.00;10331288;28;20042;-82
2021/12/28 11:08:47;;;;;;;11.65;7.22;;;;;;;3.64;95.56;100489.13;10343846;28;20041;-82
2021/12/28 11:13:48;;;;;;;9.90;7.40;;;;;;;3.59;95.24;100523.66;10413173;28;20049;-82
2021/12/28 11:18:52;;;;;;;12.90;7.70;;;;;;;4.16;95.53;100591.97;10419073;28;20041;-82
2021/12/28 11:24:14;;;;;;;14.70;8.70;;;;;;;4.47;95.77;100632.47;10418551;28;20041;-82
2021/12/28 11:29:36;;;;;;;10.88;7.70;;;;;;;5.09;95.55;100697.69;10420196;28;20042;-82
2021/12/28 11:34:43;;;;;;;11.70;7.22;;;;;;;2.98;95.07;100370.84;10420002;28;20053;-81
2021/12/28 11:39:59;;;;;;;11.38;7.32;;;;;;;3.97;94.98;100517.19;10419980;28;20444;-82
2021/12/28 11:45:01;;;;;;;14.15;7.45;;;;;;;4.99;94.73;100694.94;10417685;28;20041;-79
2021/12/28 11:50:04;;;;;;;10.23;6.50;;;;;;;4.87;95.67;100676.66;10417534;28;20068;-84
2021/12/28 11:55:09;;;;;;;14.63;7.78;;;;;;;4.75;94.96;100670.59;10417864;28;20494;-82
2021/12/28 12:00:11;;;;;;;12.25;7.82;;;;;;;4.31;95.47;100599.50;10418470;28;20044;-82
2021/12/28 12:05:18;;;;;;;11.65;7.43;;;;;;;4.93;95.30;100705.13;10417028;28;20045;-82
2021/12/28 12:10:27;;;;;;;13.25;7.57;;;;;;;3.76;95.30;100521.50;10417588;28;20052;-82
2021/12/28 12:15:38;;;;;;;13.52;6.95;;;;;;;3.57;95.85;100517.69;10417987;28;20410;-82
2021/12/28 12:21:03;;;;;;;10.43;6.85;;;;;;;4.68;95.90;100706.25;10343061;28;20038;-82
2021/12/28 12:26:08;;;;;;;12.30;6.70;;;;;;;4.61;96.55;100726.09;10368014;28;20038;-86
2021/12/28 12:31:20;;;;;;;14.00;7.65;;;;;;;4.59;96.74;100731.50;10375922;28;20065;-78
2021/12/28 12:36:38;;;;;;;14.98;7.22;;;;;;;3.61;95.83;100571.66;10375310;28;20417;-78
2021/12/28 12:41:43;;;;;;;13.73;7.15;;;;;;;4.06;96.53;100653.16;10380037;28;20088;-78
2021/12/28 12:46:47;;;;;;;20.92;11.00;;;;;;;3.86;96.25;100632.84;10379044;28;20404;-78
2021/12/28 12:51:56;;;;;;;10.82;6.70;;;;;;;2.93;96.49;100506.81;10395955;28;20092;-78
2021/12/28 12:57:00;;;;;;;13.70;6.93;;;;;;;3.73;97.46;100661.00;10393677;28;20065;-78
2021/12/28 13:02:06;;;;;;;13.95;6.90;;;;;;;3.33;97.32;100579.97;10351342;28;20041;-78
2021/12/28 13:07:12;;;;;;;10.60;7.03;;;;;;;4.22;97.69;100736.97;10396592;28;20050;-78
2021/12/28 13:12:20;;;;;;;11.32;6.97;;;;;;;3.16;97.57;100582.06;10383146;28;20445;-79
2021/12/28 13:17:23;;;;;;;12.63;7.68;;;;;;;4.05;97.77;100740.88;10391096;28;20049;-78
2021/12/28 13:22:26;;;;;;;10.02;6.38;;;;;;;3.99;97.86;100719.47;10383555;28;20049;-78
2021/12/28 13:27:29;;;;;;;11.35;6.50;;;;;;;4.03;97.62;100728.78;10387975;28;20046;-78
2021/12/28 13:32:39;;;;;;;12.10;6.60;;;;;;;3.02;98.45;100576.16;10387013;28;20081;-79
2021/12/28 13:37:57;;;;;;;12.25;7.60;;;;;;;3.94;97.95;100725.06;10372435;28;20136;-81
2021/12/28 13:43:06;;;;;;;13.80;8.38;;;;;;;3.83;98.25;100715.38;10372699;28;20069;-79
2021/12/28 13:48:20;;;;;;;13.75;7.72;;;;;;;3.94;98.36;100727.69;10371236;28;20037;-79
2021/12/28 13:53:23;;;;;;;12.35;7.35;;;;;;;3.64;98.17;100687.00;10358179;28;20042;-79
2021/12/28 13:58:34;;;;;;;25.45;11.43;;;;;;;3.70;98.98;100701.47;10355822;28;20056;-81
2021/12/28 14:03:35;;;;;;;34.28;19.58;;;;;;;2.70;99.13;100540.03;10352061;28;20525;-78
2021/12/28 14:08:40;;;;;;;17.48;10.68;;;;;;;3.79;99.33;100702.59;10352807;28;20049;-79
2021/12/28 14:13:41;;;;;;;13.98;9.10;;;;;;;2.48;98.34;100488.28;10346377;28;20497;-80
2021/12/28 14:18:48;;;;;;;16.23;9.38;;;;;;;3.88;98.83;100736.06;10350123;28;20510;-79
2021/12/28 14:24:01;;;;;;;10.10;6.95;;;;;;;4.06;98.52;100755.69;10368483;28;20120;-80
2021/12/28 14:29:14;;;;;;;13.07;8.63;;;;;;;3.99;98.53;100738.72;10370990;28;20042;-80
2021/12/28 14:34:28;;;;;;;12.35;7.45;;;;;;;3.42;98.92;100671.19;10350886;28;20388;-80
2021/12/28 14:39:35;;;;;;;10.32;6.75;;;;;;;3.97;98.82;100763.44;10350593;28;20054;-81
2021/12/28 14:44:39;;;;;;;13.95;6.13;;;;;;;3.91;98.66;100751.59;10349198;28;20129;-77
2021/12/28 14:49:41;;;;;;;11.55;7.03;;;;;;;2.79;98.25;100593.59;10360513;28;20552;-78
2021/12/28 14:55:12;;;;;;;12.95;7.20;;;;;;;3.48;98.46;100690.91;10376958;28;20593;-79
2021/12/28 15:00:31;;;;;;;9.82;6.70;;;;;;;2.17;98.54;100485.28;10380273;28;20049;-78
2021/12/28 15:05:41;;;;;;;14.63;6.55;;;;;;;2.86;98.78;100608.78;10380118;28;20501;-79
2021/12/28 15:10:44;;;;;;;9.65;6.45;;;;;;;3.27;99.42;100680.19;10378450;28;20547;-79
2021/12/28 15:15:46;;;;;;;12.25;7.28;;;;;;;3.76;99.38;100756.19;10378676;28;20042;-79
2021/12/28 15:20:47;;;;;;;12.52;6.93;;;;;;;2.94;98.68;100614.31;10378228;28;20034;-79
2021/12/28 15:25:50;;;;;;;14.40;7.57;;;;;;;2.82;99.21;100599.47;10379266;28;20038;-81
2021/12/28 15:30:51;;;;;;;12.15;8.15;;;;;;;3.43;99.19;100704.38;10379047;28;20413;-83
2021/12/28 15:35:52;;;;;;;13.23;7.53;;;;;;;3.34;99.35;100676.16;10376802;28;20037;-88
2021/12/28 15:40:52;;;;;;;11.18;7.75;;;;;;;3.21;99.45;100644.72;10385806;28;20524;-79
2021/12/28 15:45:55;;;;;;;11.85;7.45;;;;;;;3.95;99.09;100767.97;10377005;28;20046;-77
2021/12/28 15:50:57;;;;;;;12.35;7.00;;;;;;;3.05;99.29;100634.53;10350786;28;20042;-78
2021/12/28 15:55:58;;;;;;;12.35;7.80;;;;;;;3.79;99.51;100740.19;10373549;28;20048;-72
2021/12/28 16:00:58;;;;;;;11.93;7.97;;;;;;;2.87;99.10;100592.09;10375094;28;20049;-78
2021/12/28 16:06:00;;;;;;;13.23;7.60;;;;;;;3.82;99.89;100742.59;10370860;28;20038;-77
2021/12/28 16:11:01;;;;;;;13.18;7.68;;;;;;;3.55;99.91;100727.09;10405008;28;20045;-78
2021/12/28 16:16:02;;;;;;;12.75;7.80;;;;;;;3.68;100.00;100727.06;10389066;28;20037;-78
2021/12/28 16:21:04;;;;;;;12.93;7.45;;;;;;;3.59;100.00;100714.56;10398652;28;20052;-78
2021/12/28 16:26:05;;;;;;;10.63;7.22;;;;;;;2.98;100.00;100607.03;10402991;28;20057;-78
2021/12/28 16:31:06;;;;;;;11.57;7.70;;;;;;;2.80;100.00;100574.28;10375964;28;20151;-82
2021/12/28 16:36:07;;;;;;;11.20;7.20;;;;;;;2.72;100.00;100541.59;10374463;28;20072;-77
2021/12/28 16:41:10;;;;;;;15.65;7.63;;;;;;;4.14;100.00;100772.69;10379733;28;20116;-79
2021/12/28 16:46:12;;;;;;;12.60;7.60;;;;;;;3.69;100.00;100660.41;10395402;28;20053;-79
2021/12/28 16:51:13;;;;;;;16.25;10.25;;;;;;;4.33;100.00;100754.53;10373865;28;20057;-77
2021/12/28 16:56:14;;;;;;;19.58;10.68;;;;;;;4.29;100.00;100732.06;10388985;28;20405;-89
2021/12/28 17:01:15;;;;;;;16.10;8.98;;;;;;;4.41;100.00;100744.28;10380992;28;20053;-81
2021/12/28 17:06:17;;;;;;;22.73;12.35;;;;;;;4.18;100.00;100705.75;10379823;28;20046;-77
2021/12/28 17:11:20;;;;;;;23.48;14.15;;;;;;;4.31;100.00;100709.13;10380273;28;20050;-76
2021/12/28 17:16:21;;;;;;;25.98;20.33;;;;;;;3.66;100.00;100615.97;10388977;28;20046;-76
2021/12/28 17:21:22;;;;;;;21.15;13.50;;;;;;;3.22;100.00;100544.00;10373322;28;20699;-78
2021/12/28 17:26:23;;;;;;;17.23;11.00;;;;;;;4.21;100.00;100706.34;10347434;28;20046;-81
2021/12/28 17:31:24;;;;;;;12.98;9.45;;;;;;;2.98;100.00;100479.28;10345680;28;20053;-79
2021/12/28 17:36:25;;;;;;;48.28;25.90;;;;;;;3.78;100.00;100604.53;10347272;28;20045;-80
2021/12/28 17:41:25;;;;;;;69.50;37.05;;;;;;;3.43;100.00;100549.41;10347953;28;20038;-81
2021/12/28 17:46:26;;;;;;;18.27;8.60;;;;;;;2.89;100.00;100471.28;10331094;28;20089;-80
2021/12/28 17:51:27;;;;;;;18.05;8.13;;;;;;;4.28;100.00;100710.19;10331022;28;20034;-80
2021/12/28 17:56:28;;;;;;;12.90;9.35;;;;;;;2.66;100.00;100421.38;10331675;28;20045;-83
2021/12/28 18:01:29;;;;;;;45.45;35.22;;;;;;;3.37;100.00;100539.38;10336935;28;20057;-82
2021/12/28 18:06:30;;;;;;;15.60;10.10;;;;;;;3.31;100.00;100492.59;10330890;28;20065;-81
2021/12/28 18:11:31;;;;;;;15.68;9.32;;;;;;;2.78;100.00;100397.78;10331301;28;20176;-81
2021/12/28 18:16:31;;;;;;;14.23;7.88;;;;;;;4.35;100.00;100652.69;10337823;28;20434;-81
2021/12/28 18:21:32;;;;;;;16.30;9.43;;;;;;;4.45;100.00;100660.69;10331537;28;20049;-79
2021/12/28 18:26:33;;;;;;;19.52;10.52;;;;;;;3.30;100.00;100475.16;10330074;28;20034;-81
2021/12/28 18:31:34;;;;;;;20.20;10.70;;;;;;;4.05;100.00;100595.47;10343319;28;20136;-79
2021/12/28 18:36:37;;;;;;;21.85;11.13;;;;;;;3.91;100.00;100598.31;10352111;28;20104;-79
2021/12/28 18:41:38;;;;;;;23.42;12.07;;;;;;;3.80;100.00;100565.84;10334612;28;20045;-80
2021/12/28 18:46:40;;;;;;;20.45;11.48;;;;;;;4.09;100.00;100610.84;10344276;28;20054;-80
2021/12/28 18:51:42;;;;;;;19.42;11.35;;;;;;;2.87;100.00;100402.31;10342646;28;20057;-80
2021/12/28 18:56:43;;;;;;;22.40;12.30;;;;;;;3.54;100.00;100517.91;10343998;28;20054;-80
2021/12/28 19:01:44;;;;;;;25.13;12.32;;;;;;;4.35;100.00;100655.31;10346417;28;20046;-81
2021/12/28 19:06:47;;;;;;;27.35;13.13;;;;;;;4.04;100.00;100607.78;10349680;28;20042;-80
2021/12/28 19:11:48;;;;;;;22.77;11.88;;;;;;;3.90;100.00;100589.59;10347178;28;20034;-80
2021/12/28 19:16:49;;;;;;;32.33;11.60;;;;;;;3.71;100.00;100558.66;10341634;28;20426;-82
2021/12/28 19:21:49;;;;;;;31.83;12.77;;;;;;;4.26;100.00;100637.63;10340401;28;20053;-81
2021/12/28 19:26:51;;;;;;;27.65;13.40;;;;;;;2.63;100.00;100358.69;10348907;28;20038;-81
2021/12/28 19:31:51;;;;;;;25.05;12.95;;;;;;;4.05;100.00;100591.03;10347356;28;20073;-81
2021/12/28 19:36:53;;;;;;;26.17;12.80;;;;;;;3.57;100.00;100512.44;10353216;28;20039;-81
2021/12/28 19:41:54;;;;;;;32.50;12.77;;;;;;;3.96;100.00;100573.34;10350714;28;20038;-81
2021/12/28 19:46:55;;;;;;;27.30;13.07;;;;;;;3.60;100.00;100514.00;10351075;28;20124;-81
2021/12/28 19:51:55;;;;;;;27.05;14.02;;;;;;;3.02;100.00;100421.31;10351352;28;20479;-81
2021/12/28 19:56:56;;;;;;;24.67;13.23;;;;;;;3.53;100.00;100497.88;10348660;28;20101;-82
2021/12/28 20:01:57;;;;;;;26.73;13.60;;;;;;;3.89;100.00;100562.47;10352255;28;20043;-81
2021/12/28 20:06:58;;;;;;;22.40;12.07;;;;;;;3.79;100.00;100537.03;10352036;28;20048;-80
2021/12/28 20:11:59;;;;;;;20.70;11.82;;;;;;;2.94;100.00;100409.63;10354747;28;20042;-80
2021/12/28 20:17:00;;;;;;;19.92;10.80;;;;;;;4.09;100.00;100595.06;10352650;28;20049;-80
2021/12/28 20:22:01;;;;;;;19.90;10.25;;;;;;;4.40;100.00;100615.50;10350749;28;20555;-79
2021/12/28 20:27:02;;;;;;;18.25;9.65;;;;;;;3.31;100.00;100442.69;10375884;28;20096;-78
2021/12/28 20:32:03;;;;;;;14.45;8.15;;;;;;;2.87;100.00;100376.94;10376407;28;20493;-78
2021/12/28 20:37:04;;;;;;;14.30;8.68;;;;;;;3.49;100.00;100470.16;10376230;28;20053;-78
2021/12/28 20:42:05;;;;;;;13.15;7.45;;;;;;;3.26;100.00;100426.47;10347941;28;20054;-79
2021/12/28 20:47:07;;;;;;;14.23;8.32;;;;;;;4.15;100.00;100574.53;10362115;28;20133;-80
2021/12/28 20:52:08;;;;;;;15.73;8.00;;;;;;;3.45;100.00;100467.91;10334706;28;20044;-80
2021/12/28 20:57:08;;;;;;;12.35;7.18;;;;;;;3.93;100.00;100549.94;10359838;28;20048;-79
2021/12/28 21:02:16;;;;;;;10.48;6.55;;;;;;;4.25;100.00;100599.16;10374151;28;20045;-79
2021/12/28 21:07:17;;;;;;;11.43;7.00;;;;;;;3.92;100.00;100566.66;10373637;28;20034;-80
2021/12/28 21:12:18;;;;;;;11.05;7.07;;;;;;;4.09;100.00;100589.81;10375041;28;20490;-79
2021/12/28 21:17:20;;;;;;;11.88;6.95;;;;;;;4.15;100.00;100616.59;10375218;28;20046;-79
2021/12/28 21:22:21;;;;;;;12.80;7.10;;;;;;;3.64;100.00;100536.44;10374432;28;20140;-80
2021/12/28 21:27:28;;;;;;;10.43;5.80;;;;;;;4.17;100.00;100614.69;10372907;28;20175;-78
2021/12/28 21:32:29;;;;;;;9.88;6.25;;;;;;;3.59;100.00;100518.41;10374071;28;20169;-78
2021/12/28 21:37:30;;;;;;;11.50;6.28;;;;;;;3.56;100.00;100523.03;10374256;28;20124;-79
2021/12/28 21:42:31;;;;;;;10.75;6.35;;;;;;;3.00;100.00;100445.06;10374056;28;20456;-79
2021/12/28 21:47:32;;;;;;;13.18;6.18;;;;;;;2.81;100.00;100422.00;10380896;28;20037;-79
2021/12/28 21:52:33;;;;;;;8.13;3.92;;;;;;;3.79;100.00;100568.56;10389759;28;20037;-77
2021/12/28 21:57:34;;;;;;;10.13;5.57;;;;;;;3.88;100.00;100612.53;10373422;28;20053;-80
2021/12/28 22:02:36;;;;;;;8.13;4.38;;;;;;;2.55;100.00;100387.25;10373770;28;20488;-79
2021/12/28 22:07:37;;;;;;;7.85;5.25;;;;;;;3.52;100.00;100561.84;10371954;28;20030;-79
2021/12/28 22:12:40;;;;;;;11.68;5.10;;;;;;;3.52;100.00;100574.97;10372413;28;20052;-80
2021/12/28 22:17:41;;;;;;;7.93;5.25;;;;;;;3.16;100.00;100516.44;10372860;28;20489;-79
2021/12/28 22:22:42;;;;;;;8.68;4.38;;;;;;;3.28;100.00;100530.41;10373026;28;20088;-79
2021/12/28 22:27:43;;;;;;;7.38;4.32;;;;;;;3.69;100.00;100607.03;10372259;28;20065;-80
2021/12/28 22:32:44;;;;;;;7.90;4.53;;;;;;;3.53;100.00;100599.44;10371759;28;20057;-79
2021/12/28 22:37:54;;;;;;;8.52;4.63;;;;;;;2.72;100.00;100476.00;10371994;28;20484;-79
2021/12/28 22:42:56;;;;;;;9.27;5.18;;;;;;;2.79;100.00;100501.78;10371717;28;20042;-79
2021/12/28 22:47:57;;;;;;;9.77;5.22;;;;;;;3.51;100.00;100619.75;10371820;28;20042;-79
2021/12/28 22:52:59;;;;;;;12.48;6.22;;;;;;;2.91;100.00;100542.84;10372215;28;20041;-79
2021/12/28 22:57:59;;;;;;;10.52;4.97;;;;;;;2.87;100.00;100534.38;10372055;28;20486;-79